sensor_id;sensor_type;location;lat;lon;timestamp;P1;durP1;ratioP1;P2;durP2;ratioP2
5710;SDS011;61291;52.524;13.422;2023-03-13T00:00:28;66.70;;;60.40;;
5710;SDS011;61291;52.524;13.422;2023-03-13T00:02:54;65.17;;;59.77;;
5710;SDS011;61291;52.524;13.422;2023-03-13T00:05:19;67.43;;;61.03;;
5710;SDS011;61291;52.524;13.422;2023-03-13T00:07:44;64.00;;;58.87;;
5710;SDS011;61291;52.524;13.422;2023-03-13T00:10:10;65.33;;;59.30;;
5710;SDS011;61291;52.524;13.422;2023-03-13T00:12:35;64.17;;;58.73;;
5710;SDS011;61291;52.524;13.422;2023-03-13T00:15:01;64.10;;;58.87;;
5710;SDS011;61291;52.524;13.422;2023-03-13T00:17:26;65.00;;;58.60;;
5710;SDS011;61291;52.524;13.422;2023-03-13T00:19:53;65.90;;;60.53;;
5710;SDS011;61291;52.524;13.422;2023-03-13T00:22:19;64.43;;;59.27;;
5710;SDS011;61291;52.524;13.422;2023-03-13T00:24:45;65.27;;;60.03;;
5710;SDS011;61291;52.524;13.422;2023-03-13T00:27:10;64.77;;;59.23;;
5710;SDS011;61291;52.524;13.422;2023-03-13T00:29:36;63.93;;;58.53;;
5710;SDS011;61291;52.524;13.422;2023-03-13T00:32:02;64.33;;;59.17;;
5710;SDS011;61291;52.524;13.422;2023-03-13T00:34:27;66.40;;;60.97;;
5710;SDS011;61291;52.524;13.422;2023-03-13T00:36:53;64.33;;;58.73;;
5710;SDS011;61291;52.524;13.422;2023-03-13T00:39:19;65.80;;;59.90;;
5710;SDS011;61291;52.524;13.422;2023-03-13T00:41:45;65.27;;;58.77;;
5710;SDS011;61291;52.524;13.422;2023-03-13T00:44:11;67.77;;;61.47;;
5710;SDS011;61291;52.524;13.422;2023-03-13T00:46:36;65.40;;;58.97;;
5710;SDS011;61291;52.524;13.422;2023-03-13T00:49:02;66.23;;;60.77;;
5710;SDS011;61291;52.524;13.422;2023-03-13T00:51:28;62.70;;;57.43;;
5710;SDS011;61291;52.524;13.422;2023-03-13T00:53:55;64.97;;;58.60;;
5710;SDS011;61291;52.524;13.422;2023-03-13T00:56:24;62.90;;;56.77;;
5710;SDS011;61291;52.524;13.422;2023-03-13T00:58:50;60.63;;;55.77;;
5710;SDS011;61291;52.524;13.422;2023-03-13T01:01:22;65.90;;;60.30;;
5710;SDS011;61291;52.524;13.422;2023-03-13T01:03:54;68.77;;;61.80;;
5710;SDS011;61291;52.524;13.422;2023-03-13T01:06:26;66.03;;;59.20;;
5710;SDS011;61291;52.524;13.422;2023-03-13T01:08:53;65.70;;;59.80;;
5710;SDS011;61291;52.524;13.422;2023-03-13T01:11:20;67.20;;;61.80;;
5710;SDS011;61291;52.524;13.422;2023-03-13T01:13:47;65.27;;;59.33;;
5710;SDS011;61291;52.524;13.422;2023-03-13T01:16:17;64.13;;;58.57;;
5710;SDS011;61291;52.524;13.422;2023-03-13T01:18:46;64.73;;;59.50;;
5710;SDS011;61291;52.524;13.422;2023-03-13T01:21:14;67.00;;;61.30;;
5710;SDS011;61291;52.524;13.422;2023-03-13T01:23:40;68.47;;;62.10;;
5710;SDS011;61291;52.524;13.422;2023-03-13T01:26:06;66.83;;;60.57;;
5710;SDS011;61291;52.524;13.422;2023-03-13T01:28:33;66.60;;;59.87;;
5710;SDS011;61291;52.524;13.422;2023-03-13T01:30:59;65.60;;;59.37;;
5710;SDS011;61291;52.524;13.422;2023-03-13T01:33:34;64.47;;;58.63;;
5710;SDS011;61291;52.524;13.422;2023-03-13T01:36:00;63.83;;;58.30;;
5710;SDS011;61291;52.524;13.422;2023-03-13T01:38:26;66.10;;;59.20;;
5710;SDS011;61291;52.524;13.422;2023-03-13T01:40:52;66.53;;;60.27;;
5710;SDS011;61291;52.524;13.422;2023-03-13T01:43:24;63.60;;;58.10;;
5710;SDS011;61291;52.524;13.422;2023-03-13T01:48:39;67.03;;;60.93;;
5710;SDS011;61291;52.524;13.422;2023-03-13T01:51:07;66.43;;;60.90;;
5710;SDS011;61291;52.524;13.422;2023-03-13T01:53:39;66.57;;;60.50;;
5710;SDS011;61291;52.524;13.422;2023-03-13T01:56:08;66.17;;;60.57;;
5710;SDS011;61291;52.524;13.422;2023-03-13T01:58:39;67.47;;;61.30;;
5710;SDS011;61291;52.524;13.422;2023-03-13T02:01:05;65.07;;;60.17;;
5710;SDS011;61291;52.524;13.422;2023-03-13T02:03:31;56.67;;;51.92;;
5710;SDS011;61291;52.524;13.422;2023-03-13T02:05:58;66.83;;;60.90;;
5710;SDS011;61291;52.524;13.422;2023-03-13T02:08:28;66.40;;;60.13;;
5710;SDS011;61291;52.524;13.422;2023-03-13T02:11:09;65.40;;;59.90;;
5710;SDS011;61291;52.524;13.422;2023-03-13T02:13:43;65.33;;;60.03;;
5710;SDS011;61291;52.524;13.422;2023-03-13T02:16:09;67.00;;;61.37;;
5710;SDS011;61291;52.524;13.422;2023-03-13T02:18:35;64.63;;;58.80;;
5710;SDS011;61291;52.524;13.422;2023-03-13T02:21:20;64.10;;;58.83;;
5710;SDS011;61291;52.524;13.422;2023-03-13T02:24:07;64.90;;;58.87;;
5710;SDS011;61291;52.524;13.422;2023-03-13T02:26:56;63.80;;;57.80;;
5710;SDS011;61291;52.524;13.422;2023-03-13T02:29:22;65.27;;;60.33;;
5710;SDS011;61291;52.524;13.422;2023-03-13T02:31:49;62.67;;;57.53;;
5710;SDS011;61291;52.524;13.422;2023-03-13T02:40:34;61.30;;;56.67;;
5710;SDS011;61291;52.524;13.422;2023-03-13T02:43:05;63.83;;;57.93;;
5710;SDS011;61291;52.524;13.422;2023-03-13T02:45:34;65.77;;;60.27;;
5710;SDS011;61291;52.524;13.422;2023-03-13T02:47:59;62.97;;;57.70;;
5710;SDS011;61291;52.524;13.422;2023-03-13T02:50:24;63.70;;;58.20;;
5710;SDS011;61291;52.524;13.422;2023-03-13T02:52:52;63.70;;;58.07;;
5710;SDS011;61291;52.524;13.422;2023-03-13T02:55:23;64.23;;;58.67;;
5710;SDS011;61291;52.524;13.422;2023-03-13T02:57:55;63.50;;;58.10;;
5710;SDS011;61291;52.524;13.422;2023-03-13T03:00:20;63.27;;;57.87;;
5710;SDS011;61291;52.524;13.422;2023-03-13T03:02:50;63.70;;;57.83;;
5710;SDS011;61291;52.524;13.422;2023-03-13T03:05:16;64.40;;;58.77;;
5710;SDS011;61291;52.524;13.422;2023-03-13T03:07:42;65.73;;;60.03;;
5710;SDS011;61291;52.524;13.422;2023-03-13T03:10:08;62.63;;;57.23;;
5710;SDS011;61291;52.524;13.422;2023-03-13T03:12:33;64.67;;;58.83;;
5710;SDS011;61291;52.524;13.422;2023-03-13T03:14:59;67.87;;;61.80;;
5710;SDS011;61291;52.524;13.422;2023-03-13T03:17:24;66.17;;;61.07;;
5710;SDS011;61291;52.524;13.422;2023-03-13T03:19:50;66.63;;;61.17;;
5710;SDS011;61291;52.524;13.422;2023-03-13T03:22:15;66.53;;;59.80;;
5710;SDS011;61291;52.524;13.422;2023-03-13T03:24:41;63.07;;;58.60;;
5710;SDS011;61291;52.524;13.422;2023-03-13T03:27:06;65.80;;;60.70;;
5710;SDS011;61291;52.524;13.422;2023-03-13T03:29:32;69.70;;;63.60;;
5710;SDS011;61291;52.524;13.422;2023-03-13T03:31:57;64.43;;;59.10;;
5710;SDS011;61291;52.524;13.422;2023-03-13T03:34:23;65.70;;;59.57;;
5710;SDS011;61291;52.524;13.422;2023-03-13T03:36:48;66.67;;;60.13;;
5710;SDS011;61291;52.524;13.422;2023-03-13T03:39:14;64.80;;;59.73;;
5710;SDS011;61291;52.524;13.422;2023-03-13T03:41:39;63.97;;;59.17;;
5710;SDS011;61291;52.524;13.422;2023-03-13T03:44:05;66.53;;;60.60;;
5710;SDS011;61291;52.524;13.422;2023-03-13T03:46:30;63.43;;;58.10;;
5710;SDS011;61291;52.524;13.422;2023-03-13T03:48:56;65.37;;;60.27;;
5710;SDS011;61291;52.524;13.422;2023-03-13T03:51:21;66.57;;;60.10;;
5710;SDS011;61291;52.524;13.422;2023-03-13T03:53:47;67.23;;;61.13;;
5710;SDS011;61291;52.524;13.422;2023-03-13T03:56:12;62.70;;;57.37;;
5710;SDS011;61291;52.524;13.422;2023-03-13T03:58:38;61.77;;;56.40;;
5710;SDS011;61291;52.524;13.422;2023-03-13T04:01:04;62.87;;;57.10;;
5710;SDS011;61291;52.524;13.422;2023-03-13T04:03:29;65.30;;;59.27;;
5710;SDS011;61291;52.524;13.422;2023-03-13T04:05:55;61.00;;;55.43;;
5710;SDS011;61291;52.524;13.422;2023-03-13T04:08:20;58.65;;;53.10;;
5710;SDS011;61291;52.524;13.422;2023-03-13T04:10:46;64.93;;;58.77;;
5710;SDS011;61291;52.524;13.422;2023-03-13T04:13:12;64.60;;;58.13;;
5710;SDS011;61291;52.524;13.422;2023-03-13T04:15:38;65.20;;;58.43;;
5710;SDS011;61291;52.524;13.422;2023-03-13T04:18:04;67.23;;;60.03;;
5710;SDS011;61291;52.524;13.422;2023-03-13T04:20:30;65.87;;;59.67;;
5710;SDS011;61291;52.524;13.422;2023-03-13T04:22:55;64.40;;;58.53;;
5710;SDS011;61291;52.524;13.422;2023-03-13T04:25:21;63.60;;;57.37;;
5710;SDS011;61291;52.524;13.422;2023-03-13T04:27:47;60.87;;;56.17;;
5710;SDS011;61291;52.524;13.422;2023-03-13T04:30:12;62.50;;;57.50;;
5710;SDS011;61291;52.524;13.422;2023-03-13T04:32:38;63.93;;;57.97;;
5710;SDS011;61291;52.524;13.422;2023-03-13T04:35:04;68.30;;;61.57;;
5710;SDS011;61291;52.524;13.422;2023-03-13T04:37:29;67.67;;;60.97;;
5710;SDS011;61291;52.524;13.422;2023-03-13T04:39:55;63.17;;;57.47;;
5710;SDS011;61291;52.524;13.422;2023-03-13T04:42:20;65.43;;;60.23;;
5710;SDS011;61291;52.524;13.422;2023-03-13T04:44:46;62.93;;;56.80;;
5710;SDS011;61291;52.524;13.422;2023-03-13T04:47:11;67.07;;;59.90;;
5710;SDS011;61291;52.524;13.422;2023-03-13T04:49:37;65.37;;;60.50;;
5710;SDS011;61291;52.524;13.422;2023-03-13T04:52:03;63.87;;;57.10;;
5710;SDS011;61291;52.524;13.422;2023-03-13T04:54:28;54.72;;;49.17;;
5710;SDS011;61291;52.524;13.422;2023-03-13T04:56:54;64.50;;;58.27;;
5710;SDS011;61291;52.524;13.422;2023-03-13T04:59:19;61.57;;;55.97;;
5710;SDS011;61291;52.524;13.422;2023-03-13T05:01:45;71.90;;;59.70;;
5710;SDS011;61291;52.524;13.422;2023-03-13T05:04:10;65.37;;;59.33;;
5710;SDS011;61291;52.524;13.422;2023-03-13T05:06:36;60.73;;;54.77;;
5710;SDS011;61291;52.524;13.422;2023-03-13T05:09:02;62.63;;;56.07;;
5710;SDS011;61291;52.524;13.422;2023-03-13T05:11:28;61.60;;;55.00;;
5710;SDS011;61291;52.524;13.422;2023-03-13T05:13:54;65.07;;;58.73;;
5710;SDS011;61291;52.524;13.422;2023-03-13T05:16:19;66.73;;;54.17;;
5710;SDS011;61291;52.524;13.422;2023-03-13T05:18:45;65.10;;;58.97;;
5710;SDS011;61291;52.524;13.422;2023-03-13T05:21:10;61.80;;;55.83;;
5710;SDS011;61291;52.524;13.422;2023-03-13T05:23:36;53.53;;;48.40;;
5710;SDS011;61291;52.524;13.422;2023-03-13T05:26:01;62.33;;;57.00;;
5710;SDS011;61291;52.524;13.422;2023-03-13T05:28:27;66.13;;;55.60;;
5710;SDS011;61291;52.524;13.422;2023-03-13T05:30:53;57.13;;;50.03;;
5710;SDS011;61291;52.524;13.422;2023-03-13T05:33:18;63.17;;;57.30;;
5710;SDS011;61291;52.524;13.422;2023-03-13T05:35:44;61.27;;;55.20;;
5710;SDS011;61291;52.524;13.422;2023-03-13T05:38:10;60.17;;;55.10;;
5710;SDS011;61291;52.524;13.422;2023-03-13T05:40:36;63.73;;;57.10;;
5710;SDS011;61291;52.524;13.422;2023-03-13T05:43:02;58.50;;;52.70;;
5710;SDS011;61291;52.524;13.422;2023-03-13T05:45:27;66.47;;;59.67;;
5710;SDS011;61291;52.524;13.422;2023-03-13T05:47:53;68.37;;;60.70;;
5710;SDS011;61291;52.524;13.422;2023-03-13T05:50:18;68.97;;;54.60;;
5710;SDS011;61291;52.524;13.422;2023-03-13T05:52:44;64.70;;;57.67;;
5710;SDS011;61291;52.524;13.422;2023-03-13T05:55:10;63.53;;;56.80;;
5710;SDS011;61291;52.524;13.422;2023-03-13T05:57:35;67.93;;;61.20;;
5710;SDS011;61291;52.524;13.422;2023-03-13T06:00:02;62.97;;;56.70;;
5710;SDS011;61291;52.524;13.422;2023-03-13T06:02:28;62.23;;;56.03;;
5710;SDS011;61291;52.524;13.422;2023-03-13T06:04:53;63.83;;;57.70;;
5710;SDS011;61291;52.524;13.422;2023-03-13T06:07:19;66.20;;;59.10;;
5710;SDS011;61291;52.524;13.422;2023-03-13T06:09:44;73.30;;;59.13;;
5710;SDS011;61291;52.524;13.422;2023-03-13T06:12:10;69.03;;;62.43;;
5710;SDS011;61291;52.524;13.422;2023-03-13T06:14:36;68.73;;;58.60;;
5710;SDS011;61291;52.524;13.422;2023-03-13T06:17:02;77.07;;;62.97;;
5710;SDS011;61291;52.524;13.422;2023-03-13T06:19:28;67.17;;;58.40;;
5710;SDS011;61291;52.524;13.422;2023-03-13T06:21:55;70.13;;;63.13;;
5710;SDS011;61291;52.524;13.422;2023-03-13T06:24:20;66.30;;;59.90;;
5710;SDS011;61291;52.524;13.422;2023-03-13T06:26:49;66.23;;;58.60;;
5710;SDS011;61291;52.524;13.422;2023-03-13T06:29:15;74.03;;;68.10;;
5710;SDS011;61291;52.524;13.422;2023-03-13T06:31:41;72.53;;;65.27;;
5710;SDS011;61291;52.524;13.422;2023-03-13T06:34:08;66.80;;;60.80;;
5710;SDS011;61291;52.524;13.422;2023-03-13T06:36:35;72.63;;;66.20;;
5710;SDS011;61291;52.524;13.422;2023-03-13T06:39:04;69.33;;;57.40;;
5710;SDS011;61291;52.524;13.422;2023-03-13T06:41:30;69.87;;;63.07;;
5710;SDS011;61291;52.524;13.422;2023-03-13T06:43:56;63.30;;;57.43;;
5710;SDS011;61291;52.524;13.422;2023-03-13T06:46:22;68.13;;;62.00;;
5710;SDS011;61291;52.524;13.422;2023-03-13T06:48:49;68.07;;;61.23;;
5710;SDS011;61291;52.524;13.422;2023-03-13T06:51:16;66.53;;;58.33;;
5710;SDS011;61291;52.524;13.422;2023-03-13T06:53:43;67.53;;;62.00;;
5710;SDS011;61291;52.524;13.422;2023-03-13T06:56:09;65.47;;;59.67;;
5710;SDS011;61291;52.524;13.422;2023-03-13T06:58:35;77.97;;;56.30;;
5710;SDS011;61291;52.524;13.422;2023-03-13T07:01:10;68.60;;;62.43;;
5710;SDS011;61291;52.524;13.422;2023-03-13T07:03:37;73.47;;;66.27;;
5710;SDS011;61291;52.524;13.422;2023-03-13T07:06:05;62.00;;;55.65;;
5710;SDS011;61291;52.524;13.422;2023-03-13T07:08:31;73.70;;;66.77;;
5710;SDS011;61291;52.524;13.422;2023-03-13T07:10:58;73.17;;;65.97;;
5710;SDS011;61291;52.524;13.422;2023-03-13T07:13:25;66.83;;;60.80;;
5710;SDS011;61291;52.524;13.422;2023-03-13T07:15:50;69.50;;;62.90;;
5710;SDS011;61291;52.524;13.422;2023-03-13T07:18:16;62.37;;;56.70;;
5710;SDS011;61291;52.524;13.422;2023-03-13T07:20:41;66.30;;;60.13;;
5710;SDS011;61291;52.524;13.422;2023-03-13T07:23:07;66.33;;;60.70;;
5710;SDS011;61291;52.524;13.422;2023-03-13T07:25:33;69.47;;;62.13;;
5710;SDS011;61291;52.524;13.422;2023-03-13T07:27:59;71.00;;;63.27;;
5710;SDS011;61291;52.524;13.422;2023-03-13T07:30:25;71.43;;;64.47;;
5710;SDS011;61291;52.524;13.422;2023-03-13T07:32:51;72.00;;;65.77;;
5710;SDS011;61291;52.524;13.422;2023-03-13T07:35:17;66.60;;;61.27;;
5710;SDS011;61291;52.524;13.422;2023-03-13T07:37:42;75.20;;;68.53;;
5710;SDS011;61291;52.524;13.422;2023-03-13T07:40:08;67.87;;;62.53;;
5710;SDS011;61291;52.524;13.422;2023-03-13T07:42:34;74.17;;;66.70;;
5710;SDS011;61291;52.524;13.422;2023-03-13T07:45:00;72.10;;;64.67;;
5710;SDS011;61291;52.524;13.422;2023-03-13T07:47:25;70.83;;;64.73;;
5710;SDS011;61291;52.524;13.422;2023-03-13T07:49:51;66.27;;;60.43;;
5710;SDS011;61291;52.524;13.422;2023-03-13T07:52:17;65.77;;;59.60;;
5710;SDS011;61291;52.524;13.422;2023-03-13T07:54:43;69.30;;;62.97;;
5710;SDS011;61291;52.524;13.422;2023-03-13T07:57:09;69.00;;;61.47;;
5710;SDS011;61291;52.524;13.422;2023-03-13T07:59:34;70.23;;;63.97;;
5710;SDS011;61291;52.524;13.422;2023-03-13T08:02:00;54.40;;;47.42;;
5710;SDS011;61291;52.524;13.422;2023-03-13T08:04:26;69.13;;;61.83;;
5710;SDS011;61291;52.524;13.422;2023-03-13T08:06:51;65.73;;;59.90;;
5710;SDS011;61291;52.524;13.422;2023-03-13T08:09:18;66.20;;;58.70;;
5710;SDS011;61291;52.524;13.422;2023-03-13T08:11:44;65.90;;;60.37;;
5710;SDS011;61291;52.524;13.422;2023-03-13T08:14:10;65.80;;;59.40;;
5710;SDS011;61291;52.524;13.422;2023-03-13T08:16:36;65.53;;;59.23;;
5710;SDS011;61291;52.524;13.422;2023-03-13T08:19:02;64.30;;;58.50;;
5710;SDS011;61291;52.524;13.422;2023-03-13T08:21:30;71.13;;;58.50;;
5710;SDS011;61291;52.524;13.422;2023-03-13T08:23:58;67.30;;;60.53;;
5710;SDS011;61291;52.524;13.422;2023-03-13T08:26:28;64.30;;;58.10;;
5710;SDS011;61291;52.524;13.422;2023-03-13T08:28:56;64.80;;;58.13;;
5710;SDS011;61291;52.524;13.422;2023-03-13T08:31:27;62.43;;;56.50;;
5710;SDS011;61291;52.524;13.422;2023-03-13T08:33:54;61.47;;;55.30;;
5710;SDS011;61291;52.524;13.422;2023-03-13T08:36:21;60.90;;;55.60;;
5710;SDS011;61291;52.524;13.422;2023-03-13T08:38:51;65.00;;;58.87;;
5710;SDS011;61291;52.524;13.422;2023-03-13T08:41:22;63.40;;;57.30;;
5710;SDS011;61291;52.524;13.422;2023-03-13T08:43:52;62.23;;;56.10;;
5710;SDS011;61291;52.524;13.422;2023-03-13T08:46:17;63.77;;;57.77;;
5710;SDS011;61291;52.524;13.422;2023-03-13T08:48:43;60.77;;;54.90;;
5710;SDS011;61291;52.524;13.422;2023-03-13T08:51:09;59.87;;;55.00;;
5710;SDS011;61291;52.524;13.422;2023-03-13T08:53:38;60.53;;;54.80;;
5710;SDS011;61291;52.524;13.422;2023-03-13T08:56:05;59.10;;;54.57;;
5710;SDS011;61291;52.524;13.422;2023-03-13T08:58:32;61.17;;;55.93;;
5710;SDS011;61291;52.524;13.422;2023-03-13T09:01:03;58.17;;;52.33;;
5710;SDS011;61291;52.524;13.422;2023-03-13T09:03:32;56.67;;;52.37;;
5710;SDS011;61291;52.524;13.422;2023-03-13T09:05:58;56.93;;;52.67;;
5710;SDS011;61291;52.524;13.422;2023-03-13T09:08:24;60.77;;;55.47;;
5710;SDS011;61291;52.524;13.422;2023-03-13T09:10:54;62.90;;;57.80;;
5710;SDS011;61291;52.524;13.422;2023-03-13T09:13:21;65.30;;;59.57;;
5710;SDS011;61291;52.524;13.422;2023-03-13T09:16:00;59.90;;;55.30;;
5710;SDS011;61291;52.524;13.422;2023-03-13T09:18:31;61.60;;;55.80;;
5710;SDS011;61291;52.524;13.422;2023-03-13T09:20:57;68.77;;;62.53;;
5710;SDS011;61291;52.524;13.422;2023-03-13T09:23:23;62.70;;;57.33;;
5710;SDS011;61291;52.524;13.422;2023-03-13T09:25:51;61.20;;;55.87;;
5710;SDS011;61291;52.524;13.422;2023-03-13T09:28:17;65.17;;;59.50;;
5710;SDS011;61291;52.524;13.422;2023-03-13T09:30:43;45.33;;;41.53;;
5710;SDS011;61291;52.524;13.422;2023-03-13T09:33:08;59.20;;;54.30;;
5710;SDS011;61291;52.524;13.422;2023-03-13T09:35:34;62.50;;;56.90;;
5710;SDS011;61291;52.524;13.422;2023-03-13T09:38:03;59.30;;;54.73;;
5710;SDS011;61291;52.524;13.422;2023-03-13T09:40:28;62.60;;;58.00;;
5710;SDS011;61291;52.524;13.422;2023-03-13T09:42:55;61.23;;;56.63;;
5710;SDS011;61291;52.524;13.422;2023-03-13T09:45:30;61.30;;;55.30;;
5710;SDS011;61291;52.524;13.422;2023-03-13T09:50:54;62.70;;;58.07;;
5710;SDS011;61291;52.524;13.422;2023-03-13T09:53:43;63.83;;;59.27;;
5710;SDS011;61291;52.524;13.422;2023-03-13T09:56:19;64.87;;;59.73;;
5710;SDS011;61291;52.524;13.422;2023-03-13T09:58:52;63.87;;;58.03;;
5710;SDS011;61291;52.524;13.422;2023-03-13T10:01:26;56.70;;;51.57;;
5710;SDS011;61291;52.524;13.422;2023-03-13T10:04:00;58.13;;;53.37;;
5710;SDS011;61291;52.524;13.422;2023-03-13T10:06:37;46.67;;;42.42;;
5710;SDS011;61291;52.524;13.422;2023-03-13T10:09:16;57.40;;;53.20;;
5710;SDS011;61291;52.524;13.422;2023-03-13T10:17:42;64.50;;;58.90;;
5710;SDS011;61291;52.524;13.422;2023-03-13T10:20:32;61.13;;;56.40;;
5710;SDS011;61291;52.524;13.422;2023-03-13T10:23:01;54.17;;;49.73;;
5710;SDS011;61291;52.524;13.422;2023-03-13T10:25:31;61.40;;;55.73;;
5710;SDS011;61291;52.524;13.422;2023-03-13T10:27:58;60.70;;;55.87;;
5710;SDS011;61291;52.524;13.422;2023-03-13T10:32:52;65.70;;;60.53;;
5710;SDS011;61291;52.524;13.422;2023-03-13T10:35:22;65.43;;;60.30;;
5710;SDS011;61291;52.524;13.422;2023-03-13T10:37:49;61.40;;;57.40;;
5710;SDS011;61291;52.524;13.422;2023-03-13T10:40:24;67.20;;;62.27;;
5710;SDS011;61291;52.524;13.422;2023-03-13T10:42:53;66.20;;;61.63;;
5710;SDS011;61291;52.524;13.422;2023-03-13T10:45:25;61.40;;;57.50;;
5710;SDS011;61291;52.524;13.422;2023-03-13T10:47:55;65.37;;;60.47;;
5710;SDS011;61291;52.524;13.422;2023-03-13T10:50:25;66.20;;;61.37;;
5710;SDS011;61291;52.524;13.422;2023-03-13T10:52:51;61.53;;;57.00;;
5710;SDS011;61291;52.524;13.422;2023-03-13T10:55:19;66.03;;;61.73;;
5710;SDS011;61291;52.524;13.422;2023-03-13T10:57:59;57.63;;;53.70;;
5710;SDS011;61291;52.524;13.422;2023-03-13T11:00:28;60.40;;;55.87;;
5710;SDS011;61291;52.524;13.422;2023-03-13T11:02:58;60.83;;;55.70;;
5710;SDS011;61291;52.524;13.422;2023-03-13T11:13:33;66.97;;;61.93;;
5710;SDS011;61291;52.524;13.422;2023-03-13T11:21:30;65.07;;;60.53;;
5710;SDS011;61291;52.524;13.422;2023-03-13T11:24:06;66.33;;;61.83;;
5710;SDS011;61291;52.524;13.422;2023-03-13T11:26:45;63.10;;;58.90;;
5710;SDS011;61291;52.524;13.422;2023-03-13T11:29:43;60.50;;;56.33;;
5710;SDS011;61291;52.524;13.422;2023-03-13T11:32:19;60.60;;;56.30;;
5710;SDS011;61291;52.524;13.422;2023-03-13T11:34:52;62.37;;;58.13;;
5710;SDS011;61291;52.524;13.422;2023-03-13T11:37:21;64.50;;;60.00;;
5710;SDS011;61291;52.524;13.422;2023-03-13T11:42:39;64.60;;;60.20;;
5710;SDS011;61291;52.524;13.422;2023-03-13T11:45:39;65.23;;;60.03;;
5710;SDS011;61291;52.524;13.422;2023-03-13T11:54:29;62.10;;;58.17;;
5710;SDS011;61291;52.524;13.422;2023-03-13T12:05:40;66.17;;;61.77;;
5710;SDS011;61291;52.524;13.422;2023-03-13T12:08:18;60.00;;;56.00;;
5710;SDS011;61291;52.524;13.422;2023-03-13T12:13:40;60.60;;;56.60;;
5710;SDS011;61291;52.524;13.422;2023-03-13T12:16:25;62.73;;;58.40;;
5710;SDS011;61291;52.524;13.422;2023-03-13T12:19:07;65.57;;;61.47;;
5710;SDS011;61291;52.524;13.422;2023-03-13T12:21:44;60.67;;;56.67;;
5710;SDS011;61291;52.524;13.422;2023-03-13T12:26:58;67.30;;;62.50;;
5710;SDS011;61291;52.524;13.422;2023-03-13T12:29:29;60.67;;;56.37;;
5710;SDS011;61291;52.524;13.422;2023-03-13T12:32:31;62.80;;;58.73;;
5710;SDS011;61291;52.524;13.422;2023-03-13T12:37:52;66.03;;;61.33;;
5710;SDS011;61291;52.524;13.422;2023-03-13T12:40:44;62.43;;;58.33;;
5710;SDS011;61291;52.524;13.422;2023-03-13T12:43:17;66.50;;;62.30;;
5710;SDS011;61291;52.524;13.422;2023-03-13T12:48:36;62.80;;;58.47;;
5710;SDS011;61291;52.524;13.422;2023-03-13T12:51:22;66.43;;;62.03;;
5710;SDS011;61291;52.524;13.422;2023-03-13T13:00:06;68.60;;;64.30;;
5710;SDS011;61291;52.524;13.422;2023-03-13T13:02:40;69.13;;;64.23;;
5710;SDS011;61291;52.524;13.422;2023-03-13T13:05:15;69.43;;;64.73;;
5710;SDS011;61291;52.524;13.422;2023-03-13T13:07:50;71.17;;;66.60;;
5710;SDS011;61291;52.524;13.422;2023-03-13T13:10:20;64.90;;;60.80;;
5710;SDS011;61291;52.524;13.422;2023-03-13T13:15:44;68.00;;;63.57;;
5710;SDS011;61291;52.524;13.422;2023-03-13T13:18:31;60.50;;;56.50;;
5710;SDS011;61291;52.524;13.422;2023-03-13T13:29:01;73.57;;;68.67;;
5710;SDS011;61291;52.524;13.422;2023-03-13T13:36:54;61.80;;;56.80;;
5710;SDS011;61291;52.524;13.422;2023-03-13T13:39:25;67.47;;;62.63;;
5710;SDS011;61291;52.524;13.422;2023-03-13T13:44:59;63.50;;;59.40;;
5710;SDS011;61291;52.524;13.422;2023-03-13T13:47:45;64.10;;;59.90;;
5710;SDS011;61291;52.524;13.422;2023-03-13T13:52:46;57.03;;;53.17;;
5710;SDS011;61291;52.524;13.422;2023-03-13T13:55:58;65.80;;;61.07;;
5710;SDS011;61291;52.524;13.422;2023-03-13T13:58:04;61.87;;;57.93;;
5710;SDS011;61291;52.524;13.422;2023-03-13T14:00:44;63.70;;;59.70;;
5710;SDS011;61291;52.524;13.422;2023-03-13T14:03:25;59.03;;;55.13;;
5710;SDS011;61291;52.524;13.422;2023-03-13T14:05:58;65.10;;;61.00;;
5710;SDS011;61291;52.524;13.422;2023-03-13T14:08:30;63.60;;;59.40;;
5710;SDS011;61291;52.524;13.422;2023-03-13T14:16:47;60.20;;;56.50;;
5710;SDS011;61291;52.524;13.422;2023-03-13T14:21:45;65.40;;;60.43;;
5710;SDS011;61291;52.524;13.422;2023-03-13T14:24:11;64.50;;;60.07;;
5710;SDS011;61291;52.524;13.422;2023-03-13T14:26:38;61.00;;;57.07;;
5710;SDS011;61291;52.524;13.422;2023-03-13T14:29:07;59.40;;;55.57;;
5710;SDS011;61291;52.524;13.422;2023-03-13T14:31:40;64.20;;;60.27;;
5710;SDS011;61291;52.524;13.422;2023-03-13T14:34:15;62.17;;;58.27;;
5710;SDS011;61291;52.524;13.422;2023-03-13T14:36:54;59.70;;;55.87;;
5710;SDS011;61291;52.524;13.422;2023-03-13T14:42:29;60.60;;;56.80;;
5710;SDS011;61291;52.524;13.422;2023-03-13T14:45:11;56.13;;;52.53;;
5710;SDS011;61291;52.524;13.422;2023-03-13T14:47:38;62.70;;;58.50;;
5710;SDS011;61291;52.524;13.422;2023-03-13T14:50:08;53.83;;;50.20;;
5710;SDS011;61291;52.524;13.422;2023-03-13T14:52:36;64.73;;;60.63;;
5710;SDS011;61291;52.524;13.422;2023-03-13T14:55:05;57.13;;;52.43;;
5710;SDS011;61291;52.524;13.422;2023-03-13T14:58:00;52.97;;;49.27;;
5710;SDS011;61291;52.524;13.422;2023-03-13T15:00:47;61.33;;;57.50;;
5710;SDS011;61291;52.524;13.422;2023-03-13T15:05:46;67.80;;;63.60;;
5710;SDS011;61291;52.524;13.422;2023-03-13T15:08:28;57.37;;;53.40;;
5710;SDS011;61291;52.524;13.422;2023-03-13T15:10:54;56.77;;;52.93;;
5710;SDS011;61291;52.524;13.422;2023-03-13T15:13:24;53.63;;;49.67;;
5710;SDS011;61291;52.524;13.422;2023-03-13T15:15:53;52.33;;;48.93;;
5710;SDS011;61291;52.524;13.422;2023-03-13T15:18:23;54.50;;;50.67;;
5710;SDS011;61291;52.524;13.422;2023-03-13T15:20:51;55.77;;;52.17;;
5710;SDS011;61291;52.524;13.422;2023-03-13T15:23:21;54.80;;;50.90;;
5710;SDS011;61291;52.524;13.422;2023-03-13T15:25:47;56.00;;;52.50;;
5710;SDS011;61291;52.524;13.422;2023-03-13T15:28:17;54.53;;;50.97;;
5710;SDS011;61291;52.524;13.422;2023-03-13T15:30:44;52.47;;;49.27;;
5710;SDS011;61291;52.524;13.422;2023-03-13T15:33:15;50.93;;;47.63;;
5710;SDS011;61291;52.524;13.422;2023-03-13T15:35:43;56.77;;;52.43;;
5710;SDS011;61291;52.524;13.422;2023-03-13T15:38:11;59.20;;;54.30;;
5710;SDS011;61291;52.524;13.422;2023-03-13T15:40:41;51.60;;;48.10;;
5710;SDS011;61291;52.524;13.422;2023-03-13T15:43:07;53.20;;;49.50;;
5710;SDS011;61291;52.524;13.422;2023-03-13T15:45:33;52.13;;;48.40;;
5710;SDS011;61291;52.524;13.422;2023-03-13T15:48:00;50.10;;;46.90;;
5710;SDS011;61291;52.524;13.422;2023-03-13T15:50:26;53.90;;;50.00;;
5710;SDS011;61291;52.524;13.422;2023-03-13T15:52:56;46.20;;;43.10;;
5710;SDS011;61291;52.524;13.422;2023-03-13T15:55:24;48.43;;;45.10;;
5710;SDS011;61291;52.524;13.422;2023-03-13T15:57:51;51.10;;;47.60;;
5710;SDS011;61291;52.524;13.422;2023-03-13T16:00:18;51.40;;;47.50;;
5710;SDS011;61291;52.524;13.422;2023-03-13T16:02:45;54.50;;;50.92;;
5710;SDS011;61291;52.524;13.422;2023-03-13T16:05:11;53.03;;;49.07;;
5710;SDS011;61291;52.524;13.422;2023-03-13T16:07:37;54.00;;;50.40;;
5710;SDS011;61291;52.524;13.422;2023-03-13T16:10:03;50.40;;;46.90;;
5710;SDS011;61291;52.524;13.422;2023-03-13T16:12:30;55.67;;;51.80;;
5710;SDS011;61291;52.524;13.422;2023-03-13T16:14:56;51.10;;;47.70;;